Time;durP1;ratioP1;P1;durP2;ratioP2;P2;SDS_P1;SDS_P2;PMS_P1;PMS_P2;Temp;Humidity;BMP_temperature;BMP_pressure;BME280_temperature;BME280_humidity;BME280_pressure;Samples;Min_cycle;Max_cycle;Signal;HPM_P1;HPM_P2
2021/05/24 00:00:23;;;;;;;1.10;0.90;;;12.60;62.50;;;;;;5014101;28;20022;-72
2021/05/24 00:02:49;;;;;;;3.20;0.93;;;12.60;62.50;;;;;;5015234;28;20108;-72
2021/05/24 00:05:22;;;;;;;1.42;0.85;;;12.60;62.40;;;;;;5014318;28;20084;-72
2021/05/24 00:07:49;;;;;;;3.60;1.02;;;12.60;62.30;;;;;;5031679;28;20029;-73
2021/05/24 00:10:24;;;;;;;2.88;0.88;;;12.60;62.10;;;;;;5035023;28;20109;-72
2021/05/24 00:12:52;;;;;;;2.55;1.00;;;12.60;62.30;;;;;;5034999;28;20025;-72
2021/05/24 00:15:24;;;;;;;2.90;0.95;;;12.60;62.20;;;;;;5034893;28;20021;-72
2021/05/24 00:17:51;;;;;;;1.10;0.80;;;12.60;62.50;;;;;;5033622;28;20227;-73
2021/05/24 00:20:20;;;;;;;6.32;1.20;;;12.60;62.50;;;;;;5034793;28;20022;-72
2021/05/24 00:22:46;;;;;;;2.08;1.10;;;12.60;62.50;;;;;;5031086;28;20030;-72
2021/05/24 00:25:13;;;;;;;1.95;0.90;;;12.50;62.50;;;;;;5014711;28;20030;-72
2021/05/24 00:27:39;;;;;;;3.55;1.17;;;12.50;62.60;;;;;;5014877;28;20038;-73
2021/05/24 00:30:07;;;;;;;2.65;0.88;;;12.50;62.70;;;;;;5014896;28;20026;-72
2021/05/24 00:32:32;;;;;;;1.75;0.60;;;12.50;62.60;;;;;;5013605;28;20034;-72
2021/05/24 00:34:58;;;;;;;1.95;0.70;;;12.50;62.50;;;;;;5031747;28;20017;-72
2021/05/24 00:37:24;;;;;;;1.25;0.70;;;12.50;62.50;;;;;;5033269;28;20029;-72
2021/05/24 00:39:50;;;;;;;1.02;0.60;;;12.50;62.50;;;;;;5029348;28;20021;-72
2021/05/24 00:42:16;;;;;;;1.80;1.08;;;12.40;62.60;;;;;;5014697;28;20392;-72
2021/05/24 00:44:42;;;;;;;3.15;1.20;;;12.40;62.70;;;;;;5014536;28;20026;-72
2021/05/24 00:47:08;;;;;;;4.65;2.22;;;12.30;62.80;;;;;;5020508;28;20147;-72
2021/05/24 00:49:34;;;;;;;11.05;5.68;;;12.30;63.10;;;;;;5034142;28;20048;-72
2021/05/24 00:52:00;;;;;;;5.30;3.55;;;12.30;63.20;;;;;;5033923;28;20052;-72
2021/05/24 00:54:27;;;;;;;4.60;1.48;;;12.30;63.30;;;;;;5032878;28;20026;-72
2021/05/24 00:56:56;;;;;;;4.65;1.05;;;12.30;63.10;;;;;;5020830;28;20022;-72
2021/05/24 00:59:22;;;;;;;1.63;0.82;;;12.30;63.10;;;;;;5014287;28;20383;-72
2021/05/24 01:01:48;;;;;;;3.13;0.95;;;12.30;63.00;;;;;;5014257;28;20032;-72
2021/05/24 01:04:16;;;;;;;2.00;0.82;;;12.20;63.00;;;;;;5023284;28;20033;-72
2021/05/24 01:06:42;;;;;;;2.10;1.10;;;12.20;63.30;;;;;;5032641;28;20026;-72
2021/05/24 01:09:08;;;;;;;1.17;0.73;;;12.20;63.40;;;;;;5033815;28;20383;-72
2021/05/24 01:11:34;;;;;;;2.42;0.93;;;12.20;63.30;;;;;;5031892;28;20021;-73
2021/05/24 01:14:03;;;;;;;1.60;0.60;;;12.20;63.30;;;;;;5032470;28;20028;-72
2021/05/24 01:16:30;;;;;;;1.55;0.90;;;12.20;63.50;;;;;;5032529;28;20040;-72
2021/05/24 01:18:56;;;;;;;1.95;0.80;;;12.20;63.50;;;;;;5033606;28;20029;-72
2021/05/24 01:21:24;;;;;;;1.40;0.90;;;12.20;63.50;;;;;;5031259;28;20445;-72
2021/05/24 01:23:50;;;;;;;4.05;1.00;;;12.10;63.40;;;;;;5013772;28;20026;-72
2021/05/24 01:26:20;;;;;;;1.25;0.82;;;12.10;63.50;;;;;;5013536;28;20029;-72
2021/05/24 01:28:47;;;;;;;4.40;0.95;;;12.10;63.70;;;;;;5013827;28;20539;-72
2021/05/24 01:31:14;;;;;;;2.35;0.90;;;12.10;63.60;;;;;;5013720;28;20502;-73
2021/05/24 01:33:41;;;;;;;4.25;0.88;;;12.10;63.70;;;;;;5014036;28;20029;-73
2021/05/24 01:36:09;;;;;;;2.00;0.93;;;12.10;63.80;;;;;;5013684;28;20472;-73
2021/05/24 01:38:37;;;;;;;2.58;1.05;;;12.10;63.90;;;;;;5030266;28;20128;-72
2021/05/24 01:41:08;;;;;;;1.23;0.73;;;12.10;63.90;;;;;;5033321;28;20557;-72
2021/05/24 01:43:34;;;;;;;2.38;0.82;;;12.10;64.00;;;;;;5014582;28;20077;-73
2021/05/24 01:46:01;;;;;;;2.63;0.90;;;12.10;64.10;;;;;;5013580;28;20404;-72
2021/05/24 01:48:28;;;;;;;2.60;1.00;;;12.10;64.10;;;;;;5030298;28;20021;-72
2021/05/24 01:50:54;;;;;;;2.00;0.80;;;12.10;64.10;;;;;;5023440;28;20025;-72
2021/05/24 01:53:20;;;;;;;1.33;0.60;;;12.10;64.00;;;;;;5012821;28;20510;-72
2021/05/24 01:55:47;;;;;;;0.93;0.50;;;12.10;63.80;;;;;;5010545;28;20377;-72
2021/05/24 01:58:13;;;;;;;2.17;0.93;;;12.10;63.70;;;;;;5011661;28;20104;-72
2021/05/24 02:00:40;;;;;;;1.65;0.80;;;12.10;63.70;;;;;;5013361;28;20018;-72
2021/05/24 02:03:07;;;;;;;1.35;0.52;;;12.10;63.70;;;;;;5013607;28;20503;-73
2021/05/24 02:05:34;;;;;;;0.88;0.60;;;12.10;63.70;;;;;;5013378;28;20097;-72
2021/05/24 02:08:01;;;;;;;1.52;0.63;;;12.10;63.60;;;;;;5013057;28;20017;-72
2021/05/24 02:10:30;;;;;;;12.05;1.52;;;12.10;63.60;;;;;;5013258;28;20022;-72
2021/05/24 02:12:56;;;;;;;2.53;1.33;;;12.00;63.50;;;;;;5011886;28;20084;-73
2021/05/24 02:15:29;;;;;;;2.60;0.98;;;12.00;63.60;;;;;;5013182;28;20025;-72
2021/05/24 02:17:55;;;;;;;1.67;0.80;;;12.00;63.60;;;;;;5011974;28;20022;-72
2021/05/24 02:20:25;;;;;;;2.13;0.90;;;11.90;63.40;;;;;;5013102;28;20029;-72
2021/05/24 02:22:58;;;;;;;1.42;0.63;;;11.90;63.40;;;;;;5015301;28;20034;-73
2021/05/24 02:25:25;;;;;;;0.93;0.60;;;11.90;63.50;;;;;;5026934;28;20030;-73
2021/05/24 02:27:52;;;;;;;1.08;0.60;;;11.80;63.50;;;;;;5036903;28;20036;-72
2021/05/24 02:30:20;;;;;;;1.42;0.50;;;11.80;63.50;;;;;;5036902;28;20078;-73
2021/05/24 02:32:46;;;;;;;1.58;0.45;;;11.70;63.40;;;;;;5035668;28;20115;-73
2021/05/24 02:35:14;;;;;;;0.80;0.60;;;11.70;63.50;;;;;;5015756;28;20045;-73
2021/05/24 02:37:41;;;;;;;2.20;0.40;;;11.60;63.60;;;;;;5015762;28;20459;-73
2021/05/24 02:40:09;;;;;;;1.95;0.98;;;11.60;63.80;;;;;;5016753;28;20072;-73
2021/05/24 02:42:36;;;;;;;2.10;0.70;;;11.60;63.80;;;;;;5015527;28;20022;-73
2021/05/24 02:45:08;;;;;;;1.17;0.50;;;11.50;63.80;;;;;;5016834;28;20022;-73
2021/05/24 02:47:34;;;;;;;1.85;0.60;;;11.50;64.00;;;;;;5026329;28;20034;-73
2021/05/24 02:50:00;;;;;;;0.73;0.55;;;11.50;64.00;;;;;;5036532;28;20505;-72
2021/05/24 02:52:26;;;;;;;1.42;0.52;;;11.40;63.90;;;;;;5036137;28;20464;-72
2021/05/24 02:54:52;;;;;;;2.45;0.80;;;11.40;64.00;;;;;;5036425;28;20028;-73
2021/05/24 02:57:18;;;;;;;2.88;0.50;;;11.40;64.20;;;;;;5035879;28;20025;-73
2021/05/24 02:59:44;;;;;;;4.07;0.88;;;11.40;64.30;;;;;;5036360;28;20017;-73
2021/05/24 03:02:14;;;;;;;1.48;0.63;;;11.40;64.40;;;;;;5035343;28;20376;-73
2021/05/24 03:04:39;;;;;;;0.85;0.60;;;11.30;64.60;;;;;;5033430;28;20426;-73
2021/05/24 03:07:06;;;;;;;1.25;0.63;;;11.30;64.50;;;;;;5036208;28;20022;-73
2021/05/24 03:09:32;;;;;;;1.05;0.40;;;11.30;64.60;;;;;;5036137;28;20029;-73
2021/05/24 03:11:58;;;;;;;1.75;0.82;;;11.30;64.60;;;;;;5035321;28;20105;-72
2021/05/24 03:14:24;;;;;;;5.43;1.05;;;11.30;64.70;;;;;;5016219;28;20114;-73
2021/05/24 03:16:50;;;;;;;4.30;0.73;;;11.20;65.30;;;;;;5015021;28;20392;-72
2021/05/24 03:19:16;;;;;;;2.42;0.75;;;11.20;65.80;;;;;;5016157;28;20527;-72
2021/05/24 03:21:44;;;;;;;1.85;0.70;;;11.20;66.00;;;;;;5016144;28;20101;-72
2021/05/24 03:24:10;;;;;;;1.58;0.80;;;11.20;66.00;;;;;;5016053;28;20018;-72
2021/05/24 03:26:36;;;;;;;2.25;0.60;;;11.30;65.90;;;;;;5014873;28;20104;-72
2021/05/24 03:29:03;;;;;;;1.42;0.68;;;11.30;65.80;;;;;;5015029;28;20419;-72
2021/05/24 03:31:29;;;;;;;3.00;0.75;;;11.30;65.70;;;;;;5027568;28;20030;-72
2021/05/24 03:33:55;;;;;;;2.40;0.75;;;11.30;65.50;;;;;;5023408;28;20402;-73
2021/05/24 03:36:22;;;;;;;1.55;0.70;;;11.30;65.40;;;;;;5015923;28;20058;-72
2021/05/24 03:38:48;;;;;;;1.90;0.80;;;11.40;65.70;;;;;;5015512;28;20022;-73
2021/05/24 03:41:15;;;;;;;1.35;0.70;;;11.40;65.70;;;;;;5015797;28;20087;-73
2021/05/24 03:43:46;;;;;;;2.15;1.10;;;11.40;65.70;;;;;;5015773;28;20049;-72
2021/05/24 03:46:12;;;;;;;3.17;1.30;;;11.40;65.80;;;;;;5015527;28;20053;-72
2021/05/24 03:48:38;;;;;;;2.95;1.38;;;11.50;65.80;;;;;;5034284;28;20059;-73
2021/05/24 03:51:08;;;;;;;1.15;0.80;;;11.50;65.70;;;;;;5021737;28;20113;-73
2021/05/24 03:53:35;;;;;;;2.80;1.00;;;11.60;65.90;;;;;;5015244;28;20088;-72
2021/05/24 03:56:02;;;;;;;5.78;0.95;;;11.60;66.00;;;;;;5014351;28;20029;-73
2021/05/24 03:58:28;;;;;;;2.45;1.10;;;11.70;66.10;;;;;;5014205;28;20381;-72
2021/05/24 04:00:54;;;;;;;2.75;1.02;;;11.80;66.10;;;;;;5015507;28;20033;-72
2021/05/24 04:03:20;;;;;;;1.02;0.60;;;11.80;66.00;;;;;;5015651;28;20129;-73
2021/05/24 04:05:48;;;;;;;0.70;0.57;;;11.90;66.00;;;;;;5023791;28;20030;-72
2021/05/24 04:08:15;;;;;;;0.93;0.50;;;12.00;66.00;;;;;;5035063;28;20101;-72
2021/05/24 04:10:52;;;;;;;1.50;0.73;;;12.10;66.10;;;;;;5035024;28;20034;-72
2021/05/24 04:13:18;;;;;;;2.58;0.40;;;12.10;66.00;;;;;;5035091;28;20360;-72
2021/05/24 04:15:47;;;;;;;3.88;0.60;;;12.20;66.00;;;;;;5034937;28;20075;-72
2021/05/24 04:18:16;;;;;;;4.50;0.82;;;12.30;65.80;;;;;;5023668;28;20026;-72
2021/05/24 04:20:44;;;;;;;1.05;0.57;;;12.40;65.50;;;;;;5015088;28;20026;-72
2021/05/24 04:23:10;;;;;;;3.25;0.50;;;12.40;65.40;;;;;;5013703;28;20025;-71
2021/05/24 04:25:35;;;;;;;2.25;0.70;;;12.50;65.40;;;;;;5014701;28;20030;-72
2021/05/24 04:28:01;;;;;;;0.60;0.50;;;12.50;65.20;;;;;;5013274;28;20476;-71
2021/05/24 04:30:28;;;;;;;1.40;0.60;;;12.60;65.10;;;;;;5014904;28;20483;-72
2021/05/24 04:32:53;;;;;;;1.70;0.77;;;12.70;64.80;;;;;;5015017;28;20100;-72
2021/05/24 04:35:19;;;;;;;0.65;0.55;;;12.70;64.40;;;;;;5014483;28;20468;-72
2021/05/24 04:37:45;;;;;;;11.85;0.85;;;12.80;64.10;;;;;;5014739;28;20072;-72
2021/05/24 04:40:12;;;;;;;0.90;0.55;;;12.90;63.70;;;;;;5014622;28;20105;-72
2021/05/24 04:42:38;;;;;;;0.85;0.47;;;12.90;63.50;;;;;;5014437;28;20080;-71
2021/05/24 04:45:04;;;;;;;1.33;0.60;;;13.00;63.40;;;;;;5014354;28;20415;-71
2021/05/24 04:47:30;;;;;;;0.70;0.50;;;13.00;63.60;;;;;;5023330;28;20060;-71
2021/05/24 04:49:56;;;;;;;5.63;0.45;;;13.10;63.80;;;;;;5022733;28;20472;-71
2021/05/24 04:52:22;;;;;;;1.00;0.57;;;13.20;63.90;;;;;;5014178;28;20038;-72
2021/05/24 04:54:48;;;;;;;1.20;0.60;;;13.20;63.70;;;;;;5014428;28;20018;-71
2021/05/24 04:57:14;;;;;;;1.88;0.60;;;13.30;63.40;;;;;;5013125;28;20149;-72
2021/05/24 04:59:40;;;;;;;6.50;0.85;;;13.40;63.80;;;;;;5014342;28;20105;-71
2021/05/24 05:02:06;;;;;;;3.58;0.60;;;13.50;64.00;;;;;;5014206;28;20522;-71
2021/05/24 05:04:32;;;;;;;4.57;0.55;;;13.60;63.30;;;;;;5014482;28;20030;-71
2021/05/24 05:06:58;;;;;;;1.52;0.68;;;13.70;62.10;;;;;;5014205;28;20021;-71
2021/05/24 05:09:27;;;;;;;1.27;0.60;;;13.80;61.20;;;;;;5012629;28;20025;-71
2021/05/24 05:11:54;;;;;;;0.63;0.40;;;13.90;61.20;;;;;;5014050;28;20501;-71
2021/05/24 05:14:21;;;;;;;0.65;0.40;;;14.10;61.10;;;;;;5014027;28;20026;-71
2021/05/24 05:16:46;;;;;;;1.27;0.55;;;14.20;60.50;;;;;;5013890;28;20021;-71
2021/05/24 05:19:12;;;;;;;1.05;0.50;;;14.30;60.60;;;;;;5014019;28;20104;-70
2021/05/24 05:21:38;;;;;;;0.70;0.50;;;14.40;60.40;;;;;;5013943;28;20550;-70
2021/05/24 05:24:05;;;;;;;1.17;0.52;;;14.60;59.30;;;;;;5013682;28;21633;-70
2021/05/24 05:26:31;;;;;;;1.33;0.50;;;14.60;59.20;;;;;;5013870;28;20399;-70
2021/05/24 05:28:56;;;;;;;1.08;0.45;;;14.80;58.60;;;;;;5013881;28;20034;-70
2021/05/24 05:31:24;;;;;;;0.68;0.40;;;14.90;58.50;;;;;;5013712;28;20033;-69
2021/05/24 05:33:50;;;;;;;2.38;0.50;;;15.00;57.80;;;;;;5029218;28;20120;-70
2021/05/24 05:36:15;;;;;;;1.20;0.57;;;15.00;57.40;;;;;;5013689;28;20141;-69
2021/05/24 05:38:41;;;;;;;2.95;0.45;;;15.10;57.10;;;;;;5012890;28;20041;-70
2021/05/24 05:41:07;;;;;;;2.35;0.80;;;15.10;56.90;;;;;;5026416;28;20684;-69
2021/05/24 05:43:33;;;;;;;1.70;0.70;;;15.20;57.20;;;;;;5032358;28;20028;-69
2021/05/24 05:45:58;;;;;;;1.45;0.47;;;15.30;57.30;;;;;;5032052;28;20029;-69
2021/05/24 05:48:25;;;;;;;1.33;0.57;;;15.40;57.70;;;;;;5031412;28;20040;-69
2021/05/24 05:50:51;;;;;;;0.73;0.45;;;15.50;57.30;;;;;;5033172;28;20025;-69
2021/05/24 05:53:17;;;;;;;0.70;0.45;;;15.60;57.80;;;;;;5033087;28;20069;-69
2021/05/24 05:55:42;;;;;;;1.17;0.30;;;15.70;57.60;;;;;;5032855;28;20049;-70
2021/05/24 05:58:08;;;;;;;0.35;0.30;;;15.90;57.50;;;;;;5032889;28;20099;-70
2021/05/24 06:00:34;;;;;;;0.77;0.40;;;16.00;57.00;;;;;;5033101;28;20597;-67
2021/05/24 06:03:00;;;;;;;0.52;0.40;;;16.20;55.80;;;;;;5032658;28;20036;-67
2021/05/24 06:05:26;;;;;;;0.50;0.40;;;16.30;55.30;;;;;;5013276;28;20032;-67
2021/05/24 06:07:52;;;;;;;1.77;0.45;;;16.50;54.70;;;;;;5012083;28;20145;-67
2021/05/24 06:10:18;;;;;;;0.55;0.32;;;16.60;54.70;;;;;;5012933;28;20038;-67
2021/05/24 06:12:46;;;;;;;1.13;0.50;;;16.80;54.20;;;;;;5013092;28;20030;-67
2021/05/24 06:15:15;;;;;;;1.23;0.45;;;16.90;53.90;;;;;;5013020;28;20376;-67
2021/05/24 06:17:41;;;;;;;1.45;0.30;;;17.00;53.50;;;;;;5013134;28;20044;-67
2021/05/24 06:20:08;;;;;;;0.35;0.22;;;17.20;53.30;;;;;;5013201;28;20024;-68
2021/05/24 06:22:34;;;;;;;1.23;0.40;;;17.30;52.90;;;;;;5013136;28;20068;-67
2021/05/24 06:25:00;;;;;;;0.70;0.30;;;17.50;51.80;;;;;;5011243;28;20034;-67
2021/05/24 06:27:26;;;;;;;1.30;0.40;;;17.50;50.90;;;;;;5013079;28;20434;-67
2021/05/24 06:29:51;;;;;;;2.08;0.88;;;17.60;51.20;;;;;;5013172;28;20030;-67
2021/05/24 06:32:17;;;;;;;2.53;0.57;;;17.70;51.20;;;;;;5012940;28;20539;-67
2021/05/24 06:34:43;;;;;;;1.17;0.30;;;17.80;51.30;;;;;;5013272;28;20080;-67
2021/05/24 06:37:09;;;;;;;1.60;0.50;;;17.90;50.60;;;;;;5013050;28;20026;-67
2021/05/24 06:39:35;;;;;;;0.40;0.40;;;18.10;51.00;;;;;;5013058;28;20025;-67
2021/05/24 06:42:00;;;;;;;0.73;0.45;;;18.20;51.00;;;;;;5018969;28;20036;-68
2021/05/24 06:44:26;;;;;;;1.08;0.40;;;18.30;51.00;;;;;;5032676;28;20386;-68
2021/05/24 06:46:52;;;;;;;0.50;0.40;;;18.40;49.50;;;;;;5030831;28;20026;-68
2021/05/24 06:49:18;;;;;;;0.80;0.20;;;18.50;49.20;;;;;;5032673;28;20053;-68
2021/05/24 06:51:43;;;;;;;0.65;0.32;;;18.60;49.60;;;;;;5032315;28;20557;-68
2021/05/24 06:54:10;;;;;;;1.08;0.38;;;18.70;48.80;;;;;;5032635;28;20018;-68
2021/05/24 06:56:36;;;;;;;1.20;0.40;;;18.70;47.70;;;;;;5032645;28;20093;-68
2021/05/24 06:59:03;;;;;;;1.10;0.35;;;18.80;48.20;;;;;;5031349;28;20490;-68
2021/05/24 07:01:29;;;;;;;1.48;0.47;;;18.80;46.90;;;;;;5032436;28;20057;-68
2021/05/24 07:03:55;;;;;;;0.57;0.50;;;18.80;46.40;;;;;;5026862;28;20061;-68
2021/05/24 07:06:21;;;;;;;0.52;0.28;;;18.90;45.70;;;;;;5012717;28;20361;-68
2021/05/24 07:08:47;;;;;;;0.38;0.30;;;19.00;46.00;;;;;;5015323;28;20026;-68
2021/05/24 07:11:13;;;;;;;0.93;0.50;;;19.00;46.10;;;;;;5016330;28;20026;-68
2021/05/24 07:13:39;;;;;;;1.75;0.77;;;19.10;45.10;;;;;;5016222;28;20051;-68
2021/05/24 07:16:05;;;;;;;0.70;0.52;;;19.10;45.30;;;;;;5016215;28;20018;-68
2021/05/24 07:18:31;;;;;;;0.93;0.40;;;19.20;45.90;;;;;;5016207;28;20022;-68
2021/05/24 07:20:57;;;;;;;1.38;0.40;;;19.40;45.40;;;;;;5015916;28;20537;-68
2021/05/24 07:23:23;;;;;;;1.38;0.50;;;19.50;44.70;;;;;;5016140;28;20018;-68
2021/05/24 07:25:49;;;;;;;0.77;0.38;;;19.60;43.80;;;;;;5016107;28;20056;-68
2021/05/24 07:28:14;;;;;;;2.17;0.45;;;19.70;45.00;;;;;;5019087;28;20100;-70
2021/05/24 07:30:40;;;;;;;1.55;0.55;;;19.80;43.50;;;;;;5033332;28;20025;-67
2021/05/24 07:33:06;;;;;;;0.73;0.60;;;19.80;43.00;;;;;;5031294;28;20026;-67
2021/05/24 07:35:32;;;;;;;0.85;0.40;;;19.90;44.20;;;;;;5015730;28;20105;-69
2021/05/24 07:37:58;;;;;;;0.68;0.40;;;20.00;44.60;;;;;;5015803;28;20091;-67
2021/05/24 07:40:24;;;;;;;0.40;0.30;;;20.10;43.00;;;;;;5049704;28;20486;-67
2021/05/24 07:42:50;;;;;;;2.00;0.40;;;20.20;43.70;;;;;;5035371;28;20033;-67
2021/05/24 07:45:16;;;;;;;0.95;0.47;;;20.30;42.90;;;;;;5039096;28;20021;-67
2021/05/24 07:47:42;;;;;;;2.50;0.80;;;20.50;43.40;;;;;;5040351;28;20467;-67
2021/05/24 07:50:09;;;;;;;1.45;0.70;;;20.60;42.50;;;;;;5035093;28;20128;-67
2021/05/24 07:52:35;;;;;;;1.05;0.60;;;20.70;42.40;;;;;;5031321;28;20128;-67
2021/05/24 07:55:02;;;;;;;2.13;0.68;;;20.80;42.10;;;;;;5034945;28;20152;-68
2021/05/24 07:57:28;;;;;;;1.05;0.50;;;20.90;42.30;;;;;;5035098;28;20025;-68
2021/05/24 07:59:54;;;;;;;3.10;1.10;;;21.00;42.40;;;;;;5033749;28;20033;-68
2021/05/24 08:02:21;;;;;;;4.78;0.98;;;21.10;41.50;;;;;;5035005;28;20036;-68
2021/05/24 08:04:47;;;;;;;2.60;0.88;;;21.20;41.00;;;;;;5031901;28;20029;-67
2021/05/24 08:07:13;;;;;;;0.93;0.60;;;21.30;41.20;;;;;;5034889;28;20032;-68
2021/05/24 08:09:39;;;;;;;1.40;0.50;;;21.40;40.90;;;;;;5034814;28;20030;-68
2021/05/24 08:12:05;;;;;;;1.67;0.70;;;21.60;40.70;;;;;;5032604;28;20120;-67
2021/05/24 08:14:30;;;;;;;0.60;0.50;;;21.70;40.40;;;;;;5033052;28;20025;-68
2021/05/24 08:16:58;;;;;;;1.05;0.40;;;21.80;40.10;;;;;;5034532;28;20028;-70
2021/05/24 08:19:24;;;;;;;0.30;0.30;;;21.90;39.60;;;;;;5033780;28;20029;-68
2021/05/24 08:21:50;;;;;;;1.05;0.50;;;22.00;39.60;;;;;;5034282;28;20025;-68
2021/05/24 08:24:17;;;;;;;0.93;0.30;;;22.10;38.60;;;;;;5032330;28;20032;-67
2021/05/24 08:26:44;;;;;;;1.33;0.80;;;22.10;39.50;;;;;;5026353;28;20041;-68
2021/05/24 08:29:09;;;;;;;2.30;0.52;;;22.20;37.90;;;;;;5031630;28;20033;-70
2021/05/24 08:31:37;;;;;;;0.77;0.40;;;22.20;37.00;;;;;;5030978;28;20475;-68
2021/05/24 08:34:04;;;;;;;1.63;0.35;;;22.30;37.10;;;;;;5026843;28;20041;-68
2021/05/24 08:36:30;;;;;;;0.45;0.35;;;22.30;37.30;;;;;;5026326;28;20380;-68
2021/05/24 08:38:56;;;;;;;1.02;0.45;;;22.30;37.60;;;;;;5034455;28;20018;-68
2021/05/24 08:41:23;;;;;;;4.55;0.93;;;22.40;37.20;;;;;;5034432;28;20475;-69
2021/05/24 08:43:48;;;;;;;3.70;0.60;;;22.40;37.10;;;;;;5032989;28;20103;-68
2021/05/24 08:46:14;;;;;;;1.15;0.40;;;22.50;36.80;;;;;;5034128;28;20053;-68
2021/05/24 08:48:41;;;;;;;0.60;0.43;;;22.60;36.70;;;;;;5035235;28;20030;-68
2021/05/24 08:51:08;;;;;;;0.35;0.30;;;22.70;37.80;;;;;;5054092;28;20360;-68
2021/05/24 08:53:36;;;;;;;0.43;0.30;;;22.90;37.00;;;;;;5053900;28;20122;-68
2021/05/24 08:56:03;;;;;;;1.25;0.43;;;23.10;36.70;;;;;;5026943;28;20057;-68
2021/05/24 08:58:29;;;;;;;1.50;0.40;;;23.30;37.00;;;;;;5033453;28;20484;-68
2021/05/24 09:00:55;;;;;;;1.23;0.68;;;23.50;35.30;;;;;;5033890;28;20025;-68
2021/05/24 09:03:26;;;;;;;1.30;0.50;;;23.70;35.40;;;;;;5030235;28;20022;-68
2021/05/24 09:05:53;;;;;;;1.13;0.30;;;23.80;34.60;;;;;;5033957;28;20026;-68
2021/05/24 09:08:32;;;;;;;0.68;0.40;;;24.00;35.10;;;;;;5033900;28;20013;-68
2021/05/24 09:10:58;;;;;;;2.08;0.75;;;24.10;34.70;;;;;;5024554;28;20100;-68
2021/05/24 09:13:23;;;;;;;4.70;2.30;;;24.20;34.50;;;;;;5034180;28;20105;-68
2021/05/24 09:15:49;;;;;;;1.75;0.90;;;24.20;33.70;;;;;;5040864;28;20025;-68
2021/05/24 09:18:18;;;;;;;6.93;0.40;;;24.30;34.40;;;;;;5033591;28;20033;-68
2021/05/24 09:20:46;;;;;;;1.60;0.55;;;24.40;33.40;;;;;;5033551;28;20022;-69
2021/05/24 09:23:29;;;;;;;0.90;0.50;;;24.40;33.90;;;;;;5023438;28;20037;-68
2021/05/24 09:26:03;;;;;;;0.30;0.30;;;24.40;34.20;;;;;;5013853;28;20037;-68
2021/05/24 09:28:32;;;;;;;1.30;0.50;;;24.50;34.20;;;;;;5032417;28;20029;-68
2021/05/24 09:31:18;;;;;;;1.02;0.50;;;24.60;33.90;;;;;;5012872;28;20022;-66
2021/05/24 09:33:46;;;;;;;1.65;0.52;;;24.50;34.70;;;;;;5017281;28;20028;-67
2021/05/24 09:36:13;;;;;;;0.70;0.50;;;24.60;33.80;;;;;;5024894;28;20044;-67
2021/05/24 09:38:44;;;;;;;4.18;0.55;;;24.60;33.20;;;;;;5032210;28;20388;-67
2021/05/24 09:41:12;;;;;;;1.13;0.47;;;24.60;33.90;;;;;;5016207;28;20030;-66
2021/05/24 09:43:40;;;;;;;4.38;0.45;;;24.60;33.20;;;;;;5014122;28;20026;-66
2021/05/24 09:46:09;;;;;;;0.75;0.50;;;24.60;32.80;;;;;;5013357;28;20025;-66
2021/05/24 09:48:35;;;;;;;0.57;0.50;;;24.60;32.90;;;;;;5025685;28;20031;-66
2021/05/24 09:51:09;;;;;;;1.15;0.68;;;24.60;32.90;;;;;;5028267;28;20021;-66
2021/05/24 09:53:36;;;;;;;2.92;0.63;;;24.60;32.90;;;;;;5021049;28;20055;-66
2021/05/24 09:56:09;;;;;;;2.47;0.70;;;24.70;33.30;;;;;;5021528;28;20383;-66
2021/05/24 09:58:35;;;;;;;0.85;0.40;;;24.80;33.10;;;;;;5028320;28;20029;-66
2021/05/24 10:01:16;;;;;;;2.05;0.98;;;24.90;33.50;;;;;;5024037;28;20098;-66
2021/05/24 10:03:42;;;;;;;1.70;0.75;;;24.90;33.30;;;;;;5023956;28;20026;-66
2021/05/24 10:06:08;;;;;;;0.95;0.55;;;25.00;31.90;;;;;;5039476;28;20091;-66
2021/05/24 10:08:34;;;;;;;1.63;0.63;;;25.00;32.50;;;;;;5031380;28;20033;-66
2021/05/24 10:11:02;;;;;;;3.67;0.50;;;25.00;32.40;;;;;;5032455;28;20087;-66
2021/05/24 10:13:28;;;;;;;2.38;0.80;;;25.00;31.90;;;;;;5048900;28;20047;-67
2021/05/24 10:16:00;;;;;;;1.52;0.70;;;25.00;32.10;;;;;;5036550;28;20032;-66
2021/05/24 10:18:28;;;;;;;1.73;0.60;;;25.00;32.10;;;;;;5034047;28;20442;-66
2021/05/24 10:20:55;;;;;;;0.98;0.50;;;24.90;32.30;;;;;;5037229;28;20018;-66
2021/05/24 10:23:21;;;;;;;1.55;0.50;;;25.00;32.50;;;;;;5045943;28;20036;-66
2021/05/24 10:25:48;;;;;;;0.98;0.60;;;25.00;33.00;;;;;;5039434;28;20044;-66
2021/05/24 10:28:15;;;;;;;3.80;0.60;;;25.00;32.20;;;;;;5044392;28;20473;-66
2021/05/24 10:30:43;;;;;;;1.52;0.60;;;25.10;32.50;;;;;;5038141;28;20506;-66
2021/05/24 10:33:13;;;;;;;1.60;0.68;;;25.20;31.80;;;;;;5043532;28;20033;-66
2021/05/24 10:35:43;;;;;;;1.30;0.82;;;25.20;31.80;;;;;;5026876;28;20041;-66
2021/05/24 10:38:33;;;;;;;2.15;0.60;;;25.30;31.20;;;;;;5032717;28;20387;-66
2021/05/24 10:41:13;;;;;;;4.13;0.85;;;25.30;31.00;;;;;;5033810;28;20372;-66
2021/05/24 10:43:52;;;;;;;2.08;1.45;;;25.30;31.80;;;;;;5023498;28;20029;-67
2021/05/24 10:46:30;;;;;;;1.85;0.90;;;25.40;31.80;;;;;;5029335;28;20071;-67
2021/05/24 10:48:55;;;;;;;2.67;1.30;;;25.50;31.30;;;;;;5048091;28;20064;-67
2021/05/24 10:51:42;;;;;;;2.38;1.20;;;25.60;31.40;;;;;;5043506;28;20447;-67
2021/05/24 10:54:07;;;;;;;3.88;1.02;;;25.60;31.30;;;;;;5045337;28;20175;-67
2021/05/24 10:56:33;;;;;;;1.40;0.80;;;25.70;31.60;;;;;;5042154;28;20099;-67
2021/05/24 10:58:59;;;;;;;1.33;0.70;;;25.80;31.10;;;;;;5038902;28;20026;-67
2021/05/24 11:01:25;;;;;;;1.00;0.52;;;26.00;31.30;;;;;;5031410;28;20533;-67
2021/05/24 11:04:10;;;;;;;0.80;0.60;;;26.10;30.60;;;;;;5027223;28;20372;-67
2021/05/24 11:06:36;;;;;;;0.60;0.40;;;26.20;30.50;;;;;;5032350;28;20035;-67
2021/05/24 11:09:04;;;;;;;0.98;0.57;;;26.40;30.70;;;;;;5030456;28;20108;-67
2021/05/24 11:11:34;;;;;;;0.57;0.57;;;26.50;30.10;;;;;;5030237;28;20065;-67
2021/05/24 11:14:09;;;;;;;1.00;0.50;;;26.60;30.00;;;;;;5050788;28;20539;-67
2021/05/24 11:16:36;;;;;;;1.15;0.60;;;26.80;29.20;;;;;;5052408;28;20025;-67
2021/05/24 11:19:16;;;;;;;1.75;0.60;;;26.90;29.80;;;;;;5029551;28;20434;-67
2021/05/24 11:22:06;;;;;;;2.65;1.23;;;26.90;29.30;;;;;;5027960;28;20423;-67
2021/05/24 11:24:50;;;;;;;1.10;0.60;;;27.00;29.00;;;;;;5028066;28;20372;-67
2021/05/24 11:27:16;;;;;;;;;;;27.00;28.80;;;;;;5036178;28;20475;-68
2021/05/24 11:29:47;;;;;;;2.40;0.60;;;26.90;30.20;;;;;;5033181;28;19963;-68
2021/05/24 11:32:30;;;;;;;1.17;0.70;;;26.80;29.00;;;;;;5035428;28;20028;-68
2021/05/24 11:34:57;;;;;;;1.17;0.55;;;26.60;29.10;;;;;;5020471;28;20030;-67
2021/05/24 11:37:43;;;;;;;1.83;0.80;;;26.40;28.70;;;;;;5027945;28;20033;-68
2021/05/24 11:40:16;;;;;;;0.82;0.40;;;26.20;29.50;;;;;;5043927;28;20025;-68
2021/05/24 11:42:42;;;;;;;1.75;0.90;;;26.00;29.80;;;;;;5041936;28;20029;-67
2021/05/24 11:45:22;;;;;;;5.25;1.10;;;25.90;30.10;;;;;;5040729;28;20051;-68
2021/05/24 11:47:56;;;;;;;3.50;1.35;;;25.80;30.70;;;;;;5050953;28;20425;-67
2021/05/24 11:50:23;;;;;;;2.78;1.50;;;25.70;30.50;;;;;;5050752;28;20529;-67
2021/05/24 11:52:49;;;;;;;4.75;2.15;;;25.70;31.50;;;;;;5042485;28;20159;-67
2021/05/24 11:55:16;;;;;;;5.38;1.83;;;25.60;31.40;;;;;;5043567;28;20051;-67
2021/05/24 11:57:44;;;;;;;6.78;1.67;;;25.60;32.70;;;;;;5049837;28;20032;-67
2021/05/24 12:00:13;;;;;;;5.15;1.58;;;25.60;32.60;;;;;;5041350;28;20025;-68
2021/05/24 12:02:42;;;;;;;3.70;1.70;;;25.60;32.60;;;;;;5047836;28;20499;-67
2021/05/24 12:05:08;;;;;;;3.70;1.50;;;25.60;32.90;;;;;;5039068;28;20422;-67
2021/05/24 12:07:36;;;;;;;2.63;1.70;;;25.60;33.40;;;;;;5050319;28;20487;-67
2021/05/24 12:10:03;;;;;;;7.47;1.92;;;25.50;33.70;;;;;;5037703;28;20426;-67
2021/05/24 12:12:37;;;;;;;3.67;1.73;;;25.50;33.20;;;;;;5045148;28;20033;-68
2021/05/24 12:15:09;;;;;;;1.83;1.15;;;25.50;33.50;;;;;;5042882;28;20566;-66
2021/05/24 12:17:35;;;;;;;2.15;1.00;;;25.50;34.10;;;;;;5040112;28;20479;-67
2021/05/24 12:20:11;;;;;;;2.78;0.90;;;25.50;34.40;;;;;;5038227;28;20022;-67
2021/05/24 12:22:43;;;;;;;1.77;0.80;;;25.50;34.90;;;;;;5047970;28;20029;-67
2021/05/24 12:25:11;;;;;;;1.77;0.60;;;25.60;35.60;;;;;;5044791;28;20027;-67
2021/05/24 12:27:38;;;;;;;1.08;0.80;;;25.70;35.10;;;;;;5038000;28;20487;-67
2021/05/24 12:30:16;;;;;;;1.38;0.65;;;25.80;35.00;;;;;;5033586;28;20101;-67
2021/05/24 12:32:56;;;;;;;5.97;1.13;;;25.80;34.70;;;;;;5042597;28;20025;-67
2021/05/24 12:35:28;;;;;;;1.75;0.80;;;25.80;34.80;;;;;;5019327;28;20156;-67
2021/05/24 12:38:10;;;;;;;2.10;0.95;;;25.80;34.40;;;;;;5046348;28;20017;-68
2021/05/24 12:40:37;;;;;;;1.58;0.85;;;25.90;35.00;;;;;;5041566;28;20027;-67
2021/05/24 12:43:04;;;;;;;1.20;0.77;;;25.80;34.90;;;;;;5036692;28;20057;-67
2021/05/24 12:45:30;;;;;;;1.02;0.82;;;25.80;35.00;;;;;;5049664;28;20627;-67
2021/05/24 12:48:20;;;;;;;2.33;1.00;;;25.90;35.30;;;;;;5039162;28;20021;-67
2021/05/24 12:50:49;;;;;;;2.25;1.10;;;25.90;35.10;;;;;;5037928;28;20030;-67